New Wilmington, Pennsylvania
Current Conditions -  °F | °C
As of 12:51 AM on Thursday 23 Oct 2014 (Local Time) from KYNG Reporting Station
Overcast Overcast  
Wind Chill: 45°   Ceiling: 3800
Heat Index: 45°   Visibility: 10mi
Dew Point: 42°   Wind: 3mph
Humidity: 90%   Direction: 330°NNW
Pressure: 30.17"   Gusts: NA
Location:  41.12°N, 80.33°W
Report Text: KYNG 230451Z 33003KT 10SM OVC038 07/06 A3017 RMK AO2 SLP223 T00720056 401110050
Loading
Personal Weather Stations






























Interactive Weather Map
Tropical Storm Tracking
New forecast layout! Learn more

10-Day Weather Forecast

Advertisements
Track Severe Weather on mobile